createdAt,value
2019-05-12T00:02:19.719Z,27.40
2019-05-12T00:04:49.513Z,26.30
2019-05-12T00:07:19.187Z,26.77
2019-05-12T00:09:48.819Z,27.02
2019-05-12T00:12:18.568Z,29.60
2019-05-12T00:14:48.618Z,28.20
2019-05-12T00:17:18.896Z,30.10
2019-05-12T00:19:48.627Z,27.77
2019-05-12T00:22:19.851Z,29.35
2019-05-12T00:24:49.452Z,23.85
2019-05-12T00:27:20.727Z,28.77
2019-05-12T00:29:50.355Z,26.70
2019-05-12T00:32:20.004Z,26.73
2019-05-12T00:34:49.621Z,26.25
2019-05-12T00:37:19.222Z,26.17
2019-05-12T00:39:48.883Z,27.82
2019-05-12T00:42:18.501Z,25.12
2019-05-12T00:44:48.231Z,27.10
2019-05-12T00:47:18.782Z,24.82
2019-05-12T00:49:50.291Z,27.42
2019-05-12T00:52:20.045Z,27.32
2019-05-12T00:54:49.727Z,26.50
2019-05-12T00:57:19.405Z,24.45
2019-05-12T00:59:49.109Z,25.95
2019-05-12T01:02:18.707Z,26.17
2019-05-12T01:04:48.807Z,25.27
2019-05-12T01:07:18.607Z,25.88
2019-05-12T01:09:49.135Z,25.60
2019-05-12T01:12:18.848Z,23.67
2019-05-12T01:14:48.606Z,26.25
2019-05-12T01:17:18.218Z,25.12
2019-05-12T01:19:48.579Z,24.72
2019-05-12T01:22:18.749Z,24.90
2019-05-12T01:24:48.544Z,27.65
2019-05-12T01:27:18.230Z,24.18
2019-05-12T01:29:48.103Z,25.02
2019-05-12T01:32:31.639Z,27.02
2019-05-12T01:35:01.300Z,23.02
2019-05-12T01:37:31.048Z,26.30
2019-05-12T01:40:00.705Z,26.95
2019-05-12T01:42:30.300Z,27.67
2019-05-12T01:44:59.954Z,25.85
2019-05-12T01:47:29.567Z,28.92
2019-05-12T01:49:59.255Z,26.73
2019-05-12T01:52:28.949Z,29.07
2019-05-12T01:54:59.082Z,26.82
2019-05-12T01:57:28.979Z,26.30
2019-05-12T01:59:58.727Z,28.40
2019-05-12T02:02:28.691Z,27.17
2019-05-12T02:05:08.494Z,26.57
2019-05-12T02:08:02.805Z,27.95
2019-05-12T02:10:32.488Z,26.57
2019-05-12T02:13:02.192Z,26.33
2019-05-12T02:15:31.856Z,26.12
2019-05-12T02:18:01.437Z,26.42
2019-05-12T02:20:31.067Z,26.20
2019-05-12T02:23:00.676Z,26.65
2019-05-12T02:25:30.356Z,31.65
2019-05-12T02:27:59.967Z,25.72
2019-05-12T02:30:30.758Z,25.97
2019-05-12T02:33:00.612Z,24.82
2019-05-12T02:35:30.256Z,27.30
2019-05-12T02:37:59.873Z,25.95
2019-05-12T02:40:29.520Z,22.90
2019-05-12T02:42:59.513Z,26.62
2019-05-12T02:45:29.192Z,26.27
2019-05-12T02:47:58.817Z,21.02
2019-05-12T02:50:35.256Z,23.45
2019-05-12T02:53:05.624Z,23.98
2019-05-12T02:55:35.891Z,23.62
2019-05-12T02:58:06.591Z,23.22
2019-05-12T03:00:37.241Z,23.00
2019-05-12T03:03:09.379Z,22.42
2019-05-12T03:05:43.645Z,21.48
2019-05-12T03:08:15.340Z,21.35
2019-05-12T03:10:48.440Z,21.37
2019-05-12T03:13:18.077Z,21.12
2019-05-12T03:15:47.724Z,21.40
2019-05-12T03:18:17.364Z,19.85
2019-05-12T03:20:46.995Z,19.37
2019-05-12T03:23:19.128Z,19.45
2019-05-12T03:25:47.953Z,19.30
2019-05-12T03:28:17.554Z,18.10
2019-05-12T03:30:48.903Z,17.67
2019-05-12T03:33:20.015Z,18.90
2019-05-12T03:35:52.845Z,17.77
2019-05-12T03:38:20.999Z,17.23
2019-05-12T03:40:50.641Z,17.40
2019-05-12T03:43:20.348Z,18.27
2019-05-12T03:45:49.981Z,17.55
2019-05-12T03:48:19.602Z,15.90
2019-05-12T03:50:49.243Z,18.73
2019-05-12T03:53:18.905Z,15.75
2019-05-12T03:55:48.548Z,17.80
2019-05-12T03:58:18.245Z,18.15
2019-05-12T04:00:47.945Z,20.52
2019-05-12T04:03:17.533Z,19.07
2019-05-12T04:05:47.207Z,19.37
2019-05-12T04:08:16.887Z,18.82
2019-05-12T04:10:46.602Z,20.27
2019-05-12T04:13:16.302Z,20.45
2019-05-12T04:15:46.149Z,21.70
2019-05-12T04:18:16.559Z,22.52
2019-05-12T04:20:45.927Z,21.07
2019-05-12T04:23:15.817Z,23.90
2019-05-12T04:25:52.072Z,21.68
2019-05-12T04:28:17.198Z,22.45
2019-05-12T04:30:46.954Z,21.90
2019-05-12T04:33:16.573Z,20.25
2019-05-12T04:35:46.239Z,18.82
2019-05-12T04:38:15.836Z,17.45
2019-05-12T04:40:45.695Z,15.58
2019-05-12T04:43:15.444Z,15.50
2019-05-12T04:45:45.266Z,17.87
2019-05-12T04:48:18.230Z,13.75
2019-05-12T04:50:45.430Z,14.28
2019-05-12T04:53:14.650Z,12.55
2019-05-12T04:55:44.543Z,11.97
2019-05-12T04:58:15.639Z,10.00
2019-05-12T05:00:44.902Z,10.48
2019-05-12T05:03:14.445Z,11.08
2019-05-12T05:05:44.630Z,13.30
2019-05-12T05:08:19.287Z,10.95
2019-05-12T05:10:45.143Z,11.95
2019-05-12T05:13:15.019Z,12.20
2019-05-12T05:15:44.742Z,13.22
2019-05-12T05:18:14.055Z,11.60
2019-05-12T05:20:43.933Z,11.35
2019-05-12T05:23:14.132Z,11.78
2019-05-12T05:25:43.587Z,10.70
2019-05-12T05:28:14.742Z,10.00
2019-05-12T05:30:44.236Z,10.63
2019-05-12T05:33:14.455Z,11.38
2019-05-12T05:35:43.888Z,10.18
2019-05-12T05:38:18.566Z,12.68
2019-05-12T05:40:43.954Z,15.78
2019-05-12T05:43:17.899Z,11.40
2019-05-12T05:45:43.906Z,10.30
2019-05-12T05:48:13.591Z,11.33
2019-05-12T05:50:43.875Z,9.83
2019-05-12T05:53:17.538Z,10.82
2019-05-12T05:55:44.206Z,12.03
2019-05-12T05:58:15.397Z,12.73
2019-05-12T06:00:44.172Z,10.05
2019-05-12T06:03:22.749Z,11.10
2019-05-12T06:05:43.956Z,13.10
2019-05-12T06:08:18.599Z,11.40
2019-05-12T06:10:43.843Z,10.80
2019-05-12T06:13:14.379Z,16.10
2019-05-12T06:15:43.522Z,11.18
2019-05-12T06:18:13.617Z,12.43
2019-05-12T06:20:43.666Z,10.98
2019-05-12T06:23:14.785Z,11.65
2019-05-12T06:25:47.380Z,11.55
2019-05-12T06:28:14.634Z,13.15
2019-05-12T06:30:47.103Z,13.13
2019-05-12T06:33:14.705Z,17.00
2019-05-12T06:35:45.477Z,15.98
2019-05-12T06:38:14.414Z,19.27
2019-05-12T06:40:45.284Z,14.55
2019-05-12T06:43:14.400Z,14.13
2019-05-12T06:45:45.521Z,14.87
2019-05-12T06:48:14.251Z,13.00
2019-05-12T06:50:44.190Z,14.53
2019-05-12T06:53:14.055Z,11.80
2019-05-12T06:55:43.355Z,12.30
2019-05-12T06:58:14.033Z,11.70
2019-05-12T07:00:43.887Z,12.95
2019-05-12T07:03:14.264Z,11.00
2019-05-12T07:05:45.345Z,10.35
2019-05-12T07:08:17.866Z,10.50
2019-05-12T07:10:51.555Z,9.98
2019-05-12T07:13:23.499Z,10.08
2019-05-12T07:15:46.272Z,9.73
2019-05-12T07:18:17.692Z,8.75
2019-05-12T07:20:46.542Z,8.05
2019-05-12T07:23:19.649Z,8.68
2019-05-12T07:25:46.298Z,11.20
2019-05-12T07:28:15.344Z,9.53
2019-05-12T07:30:44.473Z,8.63
2019-05-12T07:33:14.646Z,8.48
2019-05-12T07:35:44.553Z,8.28
2019-05-12T07:38:20.811Z,9.60
2019-05-12T07:40:46.320Z,8.65
2019-05-12T07:43:20.582Z,11.53
2019-05-12T07:45:53.197Z,11.18
2019-05-12T07:48:19.209Z,12.00
2019-05-12T07:50:50.360Z,10.78
2019-05-12T07:53:20.483Z,10.40
2019-05-12T07:55:49.660Z,10.63
2019-05-12T07:58:19.458Z,9.88
2019-05-12T08:00:56.254Z,7.67
2019-05-12T08:03:21.390Z,8.88
2019-05-12T08:05:51.419Z,7.28
2019-05-12T08:08:24.607Z,7.95
2019-05-12T08:10:56.726Z,7.00
2019-05-12T08:13:25.817Z,7.50
2019-05-12T08:15:56.360Z,9.65
2019-05-12T08:18:30.645Z,6.17
2019-05-12T08:20:59.623Z,6.85
2019-05-12T08:23:27.059Z,7.25
2019-05-12T08:25:56.176Z,8.70
2019-05-12T08:28:34.913Z,8.40
2019-05-12T08:30:56.165Z,8.43
2019-05-12T08:33:25.174Z,8.60
2019-05-12T08:35:55.321Z,6.55
2019-05-12T08:46:12.837Z,7.53
2019-05-12T08:48:41.627Z,7.17
2019-05-12T08:51:16.738Z,5.90
2019-05-12T08:54:47.677Z,5.70
2019-05-12T13:08:07.684Z,5.87
2019-05-12T13:10:40.667Z,4.92
2019-05-12T13:13:08.619Z,6.08
2019-05-12T13:15:38.216Z,5.55
2019-05-12T13:23:42.573Z,8.10
2019-05-12T13:26:13.784Z,5.50
2019-05-12T13:28:50.576Z,7.08
2019-05-12T13:31:16.194Z,4.53
2019-05-12T13:33:49.458Z,6.42
2019-05-12T13:36:24.173Z,5.22
2019-05-12T13:38:53.583Z,5.05
2019-05-12T13:41:23.220Z,5.75
2019-05-12T13:43:55.889Z,3.77
2019-05-12T13:46:24.121Z,4.33
2019-05-12T13:48:57.736Z,5.55
2019-05-12T13:51:25.071Z,4.80
2019-05-12T13:53:54.726Z,4.17
2019-05-12T13:56:29.750Z,4.70
2019-05-12T13:58:55.660Z,4.35
2019-05-12T14:01:25.275Z,3.98
2019-05-12T14:03:54.940Z,4.87
2019-05-12T14:06:31.833Z,4.25
2019-05-12T14:08:55.882Z,3.27
2019-05-12T14:11:25.492Z,4.25
2019-05-12T14:13:55.167Z,5.17
2019-05-12T14:16:24.795Z,5.87
2019-05-12T14:18:57.010Z,3.77
2019-05-12T14:21:25.684Z,3.72
2019-05-12T14:23:56.714Z,4.03
2019-05-12T14:26:26.367Z,4.78
2019-05-12T14:28:56.026Z,5.45
2019-05-12T14:31:30.258Z,5.70
2019-05-12T14:33:57.076Z,4.42
2019-05-12T14:36:26.995Z,4.62
2019-05-12T14:39:00.261Z,4.87
2019-05-12T14:41:28.052Z,3.80
2019-05-12T14:44:01.530Z,4.80
2019-05-12T14:46:28.972Z,6.55
2019-05-12T14:48:58.679Z,4.80
2019-05-12T14:51:28.266Z,5.22
2019-05-12T14:53:58.045Z,6.17
2019-05-12T14:56:27.694Z,4.08
2019-05-12T14:59:00.758Z,4.58
2019-05-12T15:01:44.128Z,8.93
2019-05-12T15:04:05.060Z,5.15
2019-05-12T15:06:34.307Z,7.22
2019-05-12T15:09:05.907Z,5.28
2019-05-12T15:11:36.896Z,7.15
2019-05-12T15:14:06.584Z,5.80
2019-05-12T15:16:40.291Z,5.67
2019-05-12T15:19:09.810Z,8.30
2019-05-12T15:21:39.704Z,5.30
2019-05-12T15:24:15.247Z,5.17
2019-05-12T15:26:43.617Z,5.53
2019-05-12T15:29:19.894Z,5.90
2019-05-12T15:31:53.396Z,6.35
2019-05-12T15:34:16.111Z,11.03
2019-05-12T15:36:52.303Z,6.20
2019-05-12T15:39:17.308Z,4.78
2019-05-12T15:41:51.138Z,5.28
2019-05-12T15:44:23.203Z,4.75
2019-05-12T15:46:49.968Z,4.35
2019-05-12T15:49:20.887Z,5.35
2019-05-12T15:51:55.273Z,5.67
2019-05-12T15:54:22.384Z,5.12
2019-05-12T15:56:53.271Z,5.75
2019-05-12T15:59:24.528Z,5.37
2019-05-12T16:02:09.569Z,4.97
2019-05-12T16:04:34.750Z,4.65
2019-05-12T16:07:39.442Z,4.85
2019-05-12T16:09:57.778Z,5.70
2019-05-12T16:12:27.887Z,5.33
2019-05-12T16:14:57.735Z,6.12
2019-05-12T16:17:27.683Z,5.75
2019-05-12T16:19:59.374Z,6.30
2019-05-12T16:22:30.648Z,7.47
2019-05-12T16:25:05.723Z,5.65
2019-05-12T16:27:37.241Z,5.45
2019-05-12T16:30:08.005Z,6.05
2019-05-12T16:32:43.066Z,5.87
2019-05-12T16:35:09.112Z,5.58
2019-05-12T16:37:39.829Z,8.05
2019-05-12T16:40:09.873Z,4.47
2019-05-12T16:42:48.345Z,5.22
2019-05-12T16:45:25.872Z,4.75
2019-05-12T16:47:59.207Z,5.17
2019-05-12T16:50:29.674Z,4.03
2019-05-12T16:53:00.057Z,7.60
2019-05-12T16:55:29.829Z,4.85
2019-05-12T16:58:00.951Z,4.40
2019-05-12T17:00:31.226Z,5.67
2019-05-12T17:03:03.798Z,5.28
2019-05-12T17:05:33.726Z,4.90
2019-05-12T17:08:04.316Z,3.98
2019-05-12T17:10:49.711Z,4.53
2019-05-12T17:13:16.100Z,6.55
2019-05-12T17:16:14.371Z,5.75
2019-05-12T17:18:44.397Z,4.72
2019-05-12T17:21:14.520Z,6.10
2019-05-12T17:23:46.585Z,5.45
2019-05-12T17:26:16.289Z,4.85
2019-05-12T17:28:47.317Z,7.05
2019-05-12T17:31:16.985Z,4.70
2019-05-12T17:33:48.168Z,6.80
2019-05-12T17:36:18.193Z,4.72
2019-05-12T17:38:51.142Z,5.85
2019-05-12T17:41:19.284Z,6.58
2019-05-12T17:43:56.651Z,6.97
2019-05-12T17:46:20.544Z,7.50
2019-05-12T17:48:50.492Z,7.45
2019-05-12T17:51:20.488Z,5.85
2019-05-12T17:53:53.866Z,5.50
2019-05-12T17:56:25.093Z,7.42
2019-05-12T17:58:54.513Z,4.70
2019-05-12T18:01:31.325Z,5.25
2019-05-12T18:03:55.611Z,4.72
2019-05-12T18:06:29.140Z,6.65
2019-05-12T18:08:56.871Z,7.65
2019-05-12T18:11:26.521Z,5.83
2019-05-12T18:14:02.768Z,5.72
2019-05-12T18:16:27.476Z,8.90
2019-05-12T18:18:57.188Z,6.25
2019-05-12T18:21:30.969Z,5.62
2019-05-12T18:24:06.767Z,7.15
2019-05-12T18:26:33.958Z,7.08
2019-05-12T18:29:04.306Z,6.65
2019-05-12T18:31:34.406Z,5.80
2019-05-12T18:34:05.003Z,5.53
2019-05-12T18:36:34.839Z,8.25
2019-05-12T18:39:27.881Z,7.80
2019-05-12T18:42:24.415Z,8.50
2019-05-12T18:44:54.577Z,7.20
2019-05-12T18:47:32.063Z,7.08
2019-05-12T18:50:00.454Z,7.15
2019-05-12T18:52:45.606Z,7.50
2019-05-12T18:55:16.816Z,6.62
2019-05-12T18:57:49.884Z,12.68
2019-05-12T19:00:20.378Z,8.98
2019-05-12T19:02:51.155Z,9.70
2019-05-12T19:05:24.098Z,8.48
2019-05-12T19:07:54.254Z,8.13
2019-05-12T19:10:24.250Z,9.03
2019-05-12T19:13:01.311Z,9.10
2019-05-12T19:15:28.868Z,8.83
2019-05-12T19:18:03.563Z,9.35
2019-05-12T19:20:36.178Z,7.80
2019-05-12T19:23:06.574Z,8.60
2019-05-12T19:25:40.374Z,8.13
2019-05-12T19:28:10.524Z,8.35
2019-05-12T19:30:38.846Z,9.65
2019-05-12T19:33:10.717Z,8.60
2019-05-12T19:35:39.984Z,10.75
2019-05-12T19:38:10.349Z,10.00
2019-05-12T19:40:40.085Z,11.75
2019-05-12T19:43:09.791Z,10.03
2019-05-12T19:45:39.502Z,9.83
2019-05-12T19:48:23.313Z,10.70
2019-05-12T19:50:44.397Z,15.78
2019-05-12T19:53:13.922Z,10.85
2019-05-12T19:55:44.332Z,10.80
2019-05-12T19:58:14.364Z,9.00
2019-05-12T20:00:47.152Z,13.08
2019-05-12T20:03:16.883Z,10.15
2019-05-12T20:05:46.681Z,11.40
2019-05-12T20:08:16.419Z,12.63
2019-05-12T20:10:49.418Z,13.32
2019-05-12T20:13:17.428Z,10.95
2019-05-12T20:15:47.167Z,12.55
2019-05-12T20:18:16.916Z,16.27
2019-05-12T20:20:46.573Z,11.88
2019-05-12T20:23:16.280Z,13.68
2019-05-12T20:25:48.856Z,15.68
2019-05-12T20:28:18.618Z,13.95
2019-05-12T20:30:52.315Z,15.80
2019-05-12T20:33:24.631Z,14.10
2019-05-12T20:35:54.812Z,13.32
2019-05-12T20:38:33.786Z,14.78
2019-05-12T20:40:55.927Z,13.55
2019-05-12T20:43:32.219Z,13.50
2019-05-12T20:45:57.089Z,15.15
2019-05-12T20:48:31.073Z,14.47
2019-05-12T20:50:58.064Z,12.23
2019-05-12T20:53:31.913Z,14.80
2019-05-12T20:56:03.715Z,13.10
2019-05-12T20:58:37.577Z,11.95
2019-05-12T21:01:05.343Z,11.55
2019-05-12T21:03:39.748Z,10.32
2019-05-12T21:06:06.853Z,11.55
2019-05-12T21:08:38.051Z,14.20
2019-05-12T21:11:07.759Z,13.43
2019-05-12T21:13:37.418Z,13.43
2019-05-12T21:16:16.274Z,16.05
2019-05-12T21:18:47.806Z,14.93
2019-05-12T21:21:14.279Z,14.95
2019-05-12T21:23:47.928Z,13.43
2019-05-12T21:26:14.033Z,13.28
2019-05-12T21:28:48.052Z,16.02
2019-05-12T21:31:14.955Z,12.43
2019-05-12T21:33:44.637Z,12.73
2019-05-12T21:36:23.609Z,11.83
2019-05-12T21:38:45.616Z,12.85
2019-05-12T21:41:15.693Z,15.43
2019-05-12T21:43:45.467Z,11.65
2019-05-12T21:46:15.639Z,11.63
2019-05-12T21:48:45.936Z,11.05
2019-05-12T21:51:20.031Z,11.53
2019-05-12T21:53:50.645Z,11.05
2019-05-12T21:56:18.452Z,11.43
2019-05-12T21:58:53.733Z,11.55
2019-05-12T22:01:19.631Z,11.45
2019-05-12T22:03:58.092Z,11.90
2019-05-12T22:06:24.854Z,13.90
2019-05-12T22:09:01.111Z,12.30
2019-05-12T22:11:28.007Z,10.85
2019-05-12T22:14:00.208Z,11.65
2019-05-12T22:16:39.689Z,10.55
2019-05-12T22:19:03.761Z,13.15
2019-05-12T22:21:35.871Z,11.63
2019-05-12T22:24:06.298Z,9.53
2019-05-12T22:26:39.574Z,11.10
2019-05-12T22:29:07.369Z,10.85
2019-05-12T22:31:38.680Z,11.40
2019-05-12T22:34:09.447Z,10.95
2019-05-12T22:36:39.078Z,11.88
2019-05-12T22:39:08.767Z,11.75
2019-05-12T22:41:41.343Z,10.18
2019-05-12T22:44:09.849Z,13.45
2019-05-12T22:46:39.491Z,11.40
2019-05-12T22:49:10.558Z,10.48
2019-05-12T22:51:40.498Z,10.93
2019-05-12T22:54:10.716Z,8.68
2019-05-12T22:56:40.554Z,11.57
2019-05-12T22:59:10.139Z,8.90
2019-05-12T23:01:41.621Z,11.53
2019-05-12T23:04:11.088Z,9.00
2019-05-12T23:06:43.658Z,10.95
2019-05-12T23:09:12.078Z,9.85
2019-05-12T23:11:41.763Z,9.35
2019-05-12T23:14:12.649Z,10.38
2019-05-12T23:16:44.267Z,7.97
2019-05-12T23:19:15.074Z,12.78
2019-05-12T23:21:49.200Z,9.85
2019-05-12T23:24:16.239Z,11.25
2019-05-12T23:26:47.987Z,14.20
2019-05-12T23:29:20.451Z,8.80
2019-05-12T23:31:48.498Z,10.08
2019-05-12T23:34:18.095Z,9.78
2019-05-12T23:36:50.354Z,11.40
2019-05-12T23:39:19.016Z,9.93
2019-05-12T23:41:48.696Z,10.95
2019-05-12T23:44:18.386Z,11.10
2019-05-12T23:46:48.056Z,9.98
2019-05-12T23:49:36.816Z,9.05
2019-05-12T23:52:06.595Z,10.43
2019-05-12T23:54:36.443Z,11.00
2019-05-12T23:57:06.067Z,11.05
2019-05-12T23:59:35.754Z,11.65
